Time;durP1;ratioP1;P1;durP2;ratioP2;P2;SDS_P1;SDS_P2;PMS_P1;PMS_P2;Temp;Humidity;BMP_temperature;BMP_pressure;BME280_temperature;BME280_humidity;BME280_pressure;Samples;Min_cycle;Max_cycle;Signal;HPM_P1;HPM_P2
2023/09/18 00:02:25;;;;;;;3.80;3.50;;;25.90;54.80;;;;;;5001739;28;21524;-48
2023/09/18 00:04:50;;;;;;;5.53;3.90;;;25.80;55.20;;;;;;4996717;28;20441;-45
2023/09/18 00:07:16;;;;;;;3.73;3.47;;;25.60;55.20;;;;;;5002047;28;20194;-44
2023/09/18 00:09:41;;;;;;;4.13;3.40;;;25.60;55.40;;;;;;5003562;28;20183;-47
2023/09/18 00:12:07;;;;;;;4.70;4.03;;;25.70;55.30;;;;;;5007634;28;20198;-48
2023/09/18 00:14:33;;;;;;;4.07;3.70;;;25.80;54.90;;;;;;5002797;28;20299;-45
2023/09/18 00:16:59;;;;;;;5.90;4.27;;;25.80;55.10;;;;;;5000404;28;20268;-45
2023/09/18 00:19:25;;;;;;;4.13;3.77;;;25.90;54.70;;;;;;5002605;28;20675;-47
2023/09/18 00:21:52;;;;;;;3.87;3.57;;;25.80;54.90;;;;;;5011452;28;20536;-46
2023/09/18 00:24:17;;;;;;;4.90;3.73;;;25.80;54.90;;;;;;5011783;28;20197;-44
2023/09/18 00:26:43;;;;;;;4.63;3.60;;;25.90;54.90;;;;;;5009809;28;20443;-48
2023/09/18 00:29:09;;;;;;;4.13;3.87;;;26.10;54.50;;;;;;5004622;28;20201;-46
2023/09/18 00:31:34;;;;;;;4.17;3.77;;;26.00;54.30;;;;;;5008819;28;20198;-45
2023/09/18 00:34:00;;;;;;;4.37;3.90;;;26.10;54.30;;;;;;5006153;28;20570;-46
2023/09/18 00:36:25;;;;;;;4.03;3.63;;;26.30;54.00;;;;;;5001791;28;20348;-47
2023/09/18 00:38:51;;;;;;;3.70;3.40;;;26.40;53.80;;;;;;5002574;28;20186;-46
2023/09/18 00:41:16;;;;;;;4.07;3.77;;;26.30;54.10;;;;;;5006596;28;20204;-44
2023/09/18 00:43:42;;;;;;;4.87;3.80;;;26.10;54.60;;;;;;5002761;28;20233;-49
2023/09/18 00:46:08;;;;;;;4.00;3.60;;;26.10;54.60;;;;;;5007972;28;20193;-46
2023/09/18 00:48:33;;;;;;;4.17;3.80;;;26.00;54.60;;;;;;5007713;28;20198;-46
2023/09/18 00:50:59;;;;;;;4.13;3.83;;;25.80;55.80;;;;;;5002987;28;20654;-45
2023/09/18 00:53:25;;;;;;;3.63;3.43;;;26.00;54.90;;;;;;5007195;28;20658;-46
2023/09/18 00:55:55;;;;;;;4.50;3.77;;;26.20;54.40;;;;;;5006413;28;20305;-44
2023/09/18 00:58:21;;;;;;;5.07;4.70;;;26.00;54.70;;;;;;5002190;28;20441;-49
2023/09/18 01:00:47;;;;;;;4.37;3.97;;;26.20;54.60;;;;;;5003763;28;20929;-46
2023/09/18 01:03:18;;;;;;;4.27;3.97;;;26.20;54.40;;;;;;5007246;28;20503;-48
2023/09/18 01:05:44;;;;;;;5.23;3.80;;;26.30;54.40;;;;;;5007640;28;20880;-45
2023/09/18 01:08:10;;;;;;;3.80;3.50;;;25.90;55.20;;;;;;5006353;28;20904;-49
2023/09/18 01:10:48;;;;;;;4.00;3.60;;;25.90;55.20;;;;;;5005479;28;20449;-49
2023/09/18 01:13:16;;;;;;;4.20;3.90;;;25.80;55.50;;;;;;5007999;28;20221;-50
2023/09/18 01:15:55;;;;;;;5.10;4.60;;;25.80;55.80;;;;;;5001995;28;20503;-51
2023/09/18 01:18:20;;;;;;;4.23;3.83;;;25.70;56.10;;;;;;5003408;28;20461;-50
2023/09/18 01:20:46;;;;;;;4.10;3.80;;;25.80;55.80;;;;;;5006197;28;20486;-45
2023/09/18 01:23:12;;;;;;;3.97;3.67;;;25.40;56.80;;;;;;5006360;28;20281;-49
2023/09/18 01:25:37;;;;;;;4.23;3.93;;;25.20;57.50;;;;;;5007945;28;20205;-48
2023/09/18 01:28:03;;;;;;;5.00;3.90;;;25.40;57.10;;;;;;5006673;28;20194;-51
2023/09/18 01:30:29;;;;;;;4.50;4.10;;;25.60;56.60;;;;;;5010284;28;20186;-50
2023/09/18 01:32:58;;;;;;;4.90;4.50;;;25.60;56.20;;;;;;5004303;28;20468;-44
2023/09/18 01:35:29;;;;;;;4.20;3.90;;;25.70;56.20;;;;;;5011631;28;20236;-45
2023/09/18 01:37:56;;;;;;;4.10;3.80;;;25.90;56.00;;;;;;5005306;28;20651;-51
2023/09/18 01:40:23;;;;;;;4.50;4.20;;;26.10;55.50;;;;;;5005959;28;20802;-48
2023/09/18 01:42:48;;;;;;;5.93;3.80;;;26.10;55.90;;;;;;4983047;28;20971;-49
2023/09/18 01:45:14;;;;;;;4.70;4.30;;;26.10;55.10;;;;;;5006462;28;20468;-50
2023/09/18 01:47:40;;;;;;;4.00;3.70;;;26.30;55.00;;;;;;5004199;28;20232;-46
2023/09/18 01:50:06;;;;;;;4.97;4.47;;;26.30;54.90;;;;;;5000303;28;20621;-45
2023/09/18 01:52:31;;;;;;;3.97;3.67;;;26.30;54.80;;;;;;5000449;28;20190;-51
2023/09/18 01:54:57;;;;;;;4.50;4.10;;;26.40;55.30;;;;;;5006962;28;20999;-51
2023/09/18 01:57:23;;;;;;;4.03;3.73;;;26.50;54.60;;;;;;5005495;28;20198;-48
2023/09/18 01:59:48;;;;;;;4.27;3.83;;;26.40;54.40;;;;;;5008324;28;20197;-51
2023/09/18 02:02:14;;;;;;;5.10;3.50;;;26.30;53.90;;;;;;5006616;28;20243;-51
2023/09/18 02:04:39;;;;;;;4.20;3.57;;;26.00;54.00;;;;;;5006859;28;20269;-50
2023/09/18 02:07:05;;;;;;;4.03;3.50;;;26.10;54.10;;;;;;5003013;28;20201;-51
2023/09/18 02:09:31;;;;;;;5.10;3.63;;;26.00;54.20;;;;;;5007136;28;20193;-51
2023/09/18 02:11:57;;;;;;;5.03;3.70;;;25.90;54.00;;;;;;5005407;28;20476;-47
2023/09/18 02:14:22;;;;;;;3.70;3.40;;;26.10;53.70;;;;;;5002533;28;20308;-51
2023/09/18 02:16:49;;;;;;;5.93;3.40;;;26.20;53.60;;;;;;5004239;28;20198;-50
2023/09/18 02:19:16;;;;;;;5.73;3.40;;;26.50;53.10;;;;;;5007600;28;20293;-50
2023/09/18 02:21:41;;;;;;;3.27;3.00;;;26.70;52.50;;;;;;5010479;28;20445;-49
2023/09/18 02:24:07;;;;;;;4.37;3.90;;;26.80;52.70;;;;;;5010706;28;20440;-50
2023/09/18 02:26:33;;;;;;;4.30;3.53;;;26.60;53.90;;;;;;5010449;28;20309;-50
2023/09/18 02:29:01;;;;;;;3.70;3.20;;;26.00;55.80;;;;;;5007186;28;20257;-49
2023/09/18 02:31:27;;;;;;;3.40;3.00;;;25.30;57.60;;;;;;5006813;28;20284;-47
2023/09/18 02:33:52;;;;;;;4.17;2.87;;;25.00;58.60;;;;;;5006988;28;20866;-50
2023/09/18 02:36:18;;;;;;;7.03;3.27;;;25.00;58.80;;;;;;5004237;28;20250;-50
2023/09/18 02:38:44;;;;;;;4.13;3.03;;;25.00;58.40;;;;;;5006850;28;20673;-45
2023/09/18 02:41:10;;;;;;;4.20;3.20;;;25.20;58.20;;;;;;5009010;28;20320;-45
2023/09/18 02:43:37;;;;;;;5.00;3.70;;;25.50;57.60;;;;;;5005659;28;20233;-46
2023/09/18 02:46:04;;;;;;;5.60;3.60;;;25.80;57.10;;;;;;5004960;28;20308;-44
2023/09/18 02:48:29;;;;;;;3.63;3.30;;;26.00;56.50;;;;;;4998257;28;20759;-48
2023/09/18 02:50:55;;;;;;;6.13;3.60;;;26.20;56.30;;;;;;5003619;28;20440;-45
2023/09/18 02:53:22;;;;;;;4.53;3.37;;;26.30;56.60;;;;;;5010328;28;20235;-44
2023/09/18 02:55:53;;;;;;;7.53;3.40;;;26.30;57.00;;;;;;5008885;28;20220;-44
2023/09/18 02:58:19;;;;;;;8.03;3.87;;;26.40;56.80;;;;;;5006604;28;20449;-45
2023/09/18 03:00:47;;;;;;;8.57;3.50;;;26.40;56.70;;;;;;5011054;28;20587;-45
2023/09/18 03:03:13;;;;;;;4.70;3.40;;;26.30;56.50;;;;;;5007991;28;20495;-44
2023/09/18 03:05:40;;;;;;;4.90;3.80;;;26.30;56.80;;;;;;5010377;28;20615;-45
2023/09/18 03:08:06;;;;;;;4.83;3.17;;;26.20;56.80;;;;;;5010857;28;20503;-44
2023/09/18 03:10:35;;;;;;;7.60;3.83;;;26.30;57.20;;;;;;5011163;28;20456;-44
2023/09/18 03:13:04;;;;;;;4.60;3.27;;;26.30;57.50;;;;;;5012575;28;20269;-46
2023/09/18 03:15:30;;;;;;;4.87;3.20;;;26.30;57.60;;;;;;5011339;28;20583;-45
2023/09/18 03:18:00;;;;;;;5.20;3.30;;;26.20;57.30;;;;;;4987812;28;20532;-47
2023/09/18 03:20:27;;;;;;;6.27;3.87;;;26.30;57.20;;;;;;5007653;28;20445;-46
2023/09/18 03:22:56;;;;;;;4.70;3.13;;;26.30;57.10;;;;;;5008931;28;20448;-46
2023/09/18 03:25:23;;;;;;;4.60;3.30;;;26.40;57.00;;;;;;5006641;28;20512;-47
2023/09/18 03:27:51;;;;;;;6.30;3.40;;;26.40;56.90;;;;;;5003948;28;20783;-44
2023/09/18 03:30:18;;;;;;;6.50;3.63;;;26.40;56.70;;;;;;4996168;28;20448;-46
2023/09/18 03:32:44;;;;;;;11.93;4.43;;;26.40;56.80;;;;;;5003299;28;20507;-44
2023/09/18 03:35:17;;;;;;;5.67;4.60;;;26.40;56.80;;;;;;5001872;28;20977;-45
2023/09/18 03:37:43;;;;;;;5.63;3.93;;;26.40;57.10;;;;;;5007310;28;20209;-44
2023/09/18 03:40:09;;;;;;;3.70;3.27;;;26.40;57.10;;;;;;5007494;28;20433;-44
2023/09/18 03:42:35;;;;;;;7.73;3.83;;;26.40;57.20;;;;;;5006010;28;20460;-44
2023/09/18 03:45:01;;;;;;;4.73;3.10;;;26.40;57.20;;;;;;5002422;28;20432;-45
2023/09/18 03:47:26;;;;;;;6.73;3.73;;;26.30;57.10;;;;;;5005115;28;20284;-49
2023/09/18 03:49:52;;;;;;;6.30;3.60;;;26.30;56.80;;;;;;5011757;28;20457;-45
2023/09/18 03:52:18;;;;;;;4.97;3.60;;;26.00;58.00;;;;;;5004407;28;20194;-44
2023/09/18 03:54:43;;;;;;;8.23;3.77;;;25.40;59.60;;;;;;5005171;28;20226;-50
2023/09/18 03:57:09;;;;;;;6.20;3.90;;;25.40;59.90;;;;;;5009257;28;20674;-44
2023/09/18 03:59:34;;;;;;;4.70;4.10;;;25.50;59.80;;;;;;5010542;28;20190;-44
2023/09/18 04:02:00;;;;;;;6.10;3.53;;;25.50;59.80;;;;;;5010458;28;20225;-44
2023/09/18 04:04:25;;;;;;;6.93;3.47;;;25.60;59.80;;;;;;5012427;28;20205;-44
2023/09/18 04:06:51;;;;;;;6.97;3.50;;;25.60;59.70;;;;;;5012380;28;20189;-45
2023/09/18 04:09:17;;;;;;;8.73;3.40;;;25.60;59.60;;;;;;5012300;28;20240;-44
2023/09/18 04:11:43;;;;;;;5.67;3.80;;;25.60;59.50;;;;;;5006777;28;20194;-45
2023/09/18 04:14:09;;;;;;;6.90;3.80;;;25.50;59.20;;;;;;5008686;28;20467;-44
2023/09/18 04:16:39;;;;;;;4.70;3.50;;;25.40;59.30;;;;;;5011506;28;20554;-44
2023/09/18 04:19:05;;;;;;;7.17;3.40;;;25.50;59.20;;;;;;5006005;28;20662;-44
2023/09/18 04:21:31;;;;;;;5.80;3.80;;;25.50;60.00;;;;;;5006612;28;20479;-47
2023/09/18 04:23:58;;;;;;;6.13;3.40;;;25.50;60.10;;;;;;5010968;28;20209;-48
2023/09/18 04:26:29;;;;;;;11.13;4.67;;;25.40;60.00;;;;;;5003549;28;20273;-46
2023/09/18 04:28:55;;;;;;;5.87;3.90;;;25.40;59.90;;;;;;5007744;28;20436;-47
2023/09/18 04:31:20;;;;;;;5.63;3.83;;;25.40;59.50;;;;;;5004309;28;20531;-44
2023/09/18 04:33:46;;;;;;;6.07;3.30;;;25.50;59.30;;;;;;5011540;28;20437;-44
2023/09/18 04:36:11;;;;;;;5.27;3.40;;;25.50;59.10;;;;;;5008524;28;20222;-44
2023/09/18 04:38:37;;;;;;;6.10;4.10;;;25.50;59.00;;;;;;5011929;28;20198;-46
2023/09/18 04:41:03;;;;;;;6.40;3.90;;;25.60;59.00;;;;;;5008306;28;20201;-45
2023/09/18 04:43:31;;;;;;;7.27;3.47;;;25.60;58.70;;;;;;4997679;28;20194;-44
2023/09/18 04:45:56;;;;;;;4.83;3.27;;;25.60;58.80;;;;;;5012522;28;20650;-46
2023/09/18 04:48:22;;;;;;;6.17;3.73;;;25.60;59.30;;;;;;5010176;28;20443;-44
2023/09/18 04:50:48;;;;;;;8.43;3.50;;;25.40;60.00;;;;;;5012225;28;20190;-46
2023/09/18 04:53:14;;;;;;;9.30;3.93;;;25.10;60.90;;;;;;5012337;28;20194;-44
2023/09/18 04:55:40;;;;;;;8.77;3.93;;;25.10;60.90;;;;;;5011517;28;20492;-45
2023/09/18 04:58:06;;;;;;;5.93;3.90;;;25.00;60.80;;;;;;5001538;28;20257;-44
2023/09/18 05:00:33;;;;;;;8.77;3.40;;;25.00;60.50;;;;;;5006185;28;20199;-44
2023/09/18 05:03:01;;;;;;;5.60;3.27;;;25.00;60.70;;;;;;5006737;28;20472;-46
2023/09/18 05:05:27;;;;;;;5.50;3.37;;;25.00;61.00;;;;;;5007025;28;20881;-44
2023/09/18 05:07:53;;;;;;;6.97;4.17;;;25.00;60.90;;;;;;5010577;28;20444;-50
2023/09/18 05:10:19;;;;;;;5.90;3.40;;;25.20;61.20;;;;;;5004146;28;20458;-43
2023/09/18 05:12:45;;;;;;;8.47;3.90;;;25.40;60.80;;;;;;5006329;28;20190;-44
2023/09/18 05:15:12;;;;;;;5.07;3.60;;;25.50;59.90;;;;;;5003171;28;20488;-43
2023/09/18 05:17:42;;;;;;;6.00;4.23;;;25.80;59.60;;;;;;5009024;28;20444;-44
2023/09/18 05:20:11;;;;;;;9.90;4.30;;;25.90;59.00;;;;;;5012053;28;20863;-43
2023/09/18 05:22:37;;;;;;;7.73;4.63;;;26.10;58.70;;;;;;5007841;28;20539;-43
2023/09/18 05:25:04;;;;;;;6.10;4.33;;;26.20;58.50;;;;;;5011011;28;20583;-48
2023/09/18 05:27:29;;;;;;;7.53;3.60;;;26.20;58.50;;;;;;5002590;28;20202;-44
2023/09/18 05:29:55;;;;;;;6.13;3.77;;;26.10;58.90;;;;;;5002807;28;21025;-45
2023/09/18 05:32:21;;;;;;;6.13;3.80;;;26.00;58.90;;;;;;5006052;28;20214;-45
2023/09/18 05:34:46;;;;;;;3.90;3.23;;;26.00;59.00;;;;;;5003624;28;20230;-43
2023/09/18 05:37:13;;;;;;;5.27;3.40;;;25.90;58.90;;;;;;5001431;28;20230;-49
2023/09/18 05:39:38;;;;;;;6.00;3.30;;;25.90;58.90;;;;;;5001373;28;20225;-43
2023/09/18 05:42:04;;;;;;;5.47;3.13;;;26.00;58.50;;;;;;4998472;28;20482;-44
2023/09/18 05:44:30;;;;;;;9.93;3.87;;;26.10;58.00;;;;;;5006599;28;20252;-45
2023/09/18 05:46:56;;;;;;;8.17;3.40;;;26.20;57.80;;;;;;5006985;28;20441;-45
2023/09/18 05:49:21;;;;;;;6.03;4.17;;;26.40;57.50;;;;;;5005603;28;20633;-43
2023/09/18 05:51:48;;;;;;;4.27;2.80;;;26.50;57.40;;;;;;5009417;28;20185;-44
2023/09/18 05:54:14;;;;;;;5.40;3.70;;;26.50;57.10;;;;;;5010179;28;20198;-44
2023/09/18 05:56:39;;;;;;;7.27;3.70;;;26.50;56.90;;;;;;5009030;28;20439;-43
2023/09/18 05:59:05;;;;;;;7.70;3.77;;;26.50;56.90;;;;;;5006589;28;22087;-43
2023/09/18 06:01:32;;;;;;;10.40;3.53;;;26.60;56.90;;;;;;5006439;28;20208;-43
2023/09/18 06:03:58;;;;;;;4.67;3.60;;;26.70;56.80;;;;;;5002496;28;20201;-44
2023/09/18 06:06:24;;;;;;;3.57;3.10;;;26.70;56.40;;;;;;5010182;28;20445;-45
2023/09/18 06:08:53;;;;;;;6.40;3.03;;;26.40;56.70;;;;;;5011718;28;20198;-47
2023/09/18 06:11:18;;;;;;;5.60;3.00;;;26.50;56.50;;;;;;5009609;28;20848;-48
2023/09/18 06:13:44;;;;;;;4.27;2.63;;;26.20;57.10;;;;;;5007032;28;20452;-44
2023/09/18 06:16:10;;;;;;;8.10;3.80;;;26.00;57.40;;;;;;5010582;28;20259;-44
2023/09/18 06:18:38;;;;;;;4.17;2.93;;;26.00;57.40;;;;;;5009871;28;20654;-43
2023/09/18 06:21:03;;;;;;;4.77;3.17;;;25.70;57.70;;;;;;5003210;28;20532;-44
2023/09/18 06:23:29;;;;;;;6.17;3.17;;;25.70;57.60;;;;;;5010220;28;20468;-46
2023/09/18 06:25:56;;;;;;;4.17;3.50;;;25.70;57.20;;;;;;5008713;28;20201;-46
2023/09/18 06:28:22;;;;;;;4.37;2.80;;;25.20;57.80;;;;;;5009067;28;20712;-43
2023/09/18 06:30:48;;;;;;;7.20;2.93;;;24.90;59.20;;;;;;5012154;28;20420;-43
2023/09/18 06:33:13;;;;;;;6.10;2.80;;;24.90;59.60;;;;;;5011882;28;20471;-45
2023/09/18 06:35:39;;;;;;;6.70;2.73;;;25.00;59.10;;;;;;5012003;28;20240;-43
2023/09/18 06:38:06;;;;;;;3.40;2.67;;;25.10;58.30;;;;;;5009458;28;20197;-43
2023/09/18 06:40:32;;;;;;;5.43;3.30;;;25.20;58.30;;;;;;5012037;28;20212;-44
2023/09/18 06:43:01;;;;;;;5.13;2.60;;;25.60;57.80;;;;;;5009488;28;20528;-46
2023/09/18 06:45:27;;;;;;;4.10;2.50;;;25.70;57.40;;;;;;5009945;28;20669;-44
2023/09/18 06:47:53;;;;;;;12.00;3.27;;;25.50;57.50;;;;;;5005698;28;20447;-46
2023/09/18 06:50:19;;;;;;;7.00;3.20;;;25.80;57.50;;;;;;5007805;28;20811;-44
2023/09/18 06:52:45;;;;;;;10.57;3.70;;;26.00;57.10;;;;;;5001783;28;20197;-44
2023/09/18 06:55:11;;;;;;;7.50;2.93;;;26.10;56.80;;;;;;5007175;28;20642;-44
2023/09/18 06:57:37;;;;;;;9.20;2.37;;;25.70;57.00;;;;;;5005629;28;20480;-45
2023/09/18 07:00:05;;;;;;;5.40;2.30;;;25.80;56.80;;;;;;5009114;28;20673;-44
2023/09/18 07:02:30;;;;;;;7.03;2.70;;;25.90;56.40;;;;;;5007743;28;20268;-50
2023/09/18 07:04:56;;;;;;;9.17;3.37;;;26.10;56.40;;;;;;5005423;28;20449;-46
2023/09/18 07:07:25;;;;;;;4.80;2.47;;;26.40;56.20;;;;;;5007545;28;20190;-44
2023/09/18 07:09:51;;;;;;;5.87;2.70;;;26.40;56.40;;;;;;5012221;28;20202;-46
2023/09/18 07:12:20;;;;;;;5.53;2.87;;;26.40;56.10;;;;;;5012413;28;20440;-50
2023/09/18 07:14:46;;;;;;;8.37;3.43;;;26.50;56.10;;;;;;5014207;28;20500;-50
2023/09/18 07:17:12;;;;;;;4.70;3.20;;;26.50;56.10;;;;;;5014405;28;20441;-49
2023/09/18 07:19:38;;;;;;;6.40;2.80;;;26.40;56.50;;;;;;5011098;28;20807;-45
2023/09/18 07:22:04;;;;;;;6.00;3.40;;;26.50;56.40;;;;;;5014404;28;20197;-47
2023/09/18 07:24:29;;;;;;;5.70;2.50;;;26.50;56.40;;;;;;5008835;28;20208;-49
2023/09/18 07:26:57;;;;;;;8.60;3.30;;;26.50;56.20;;;;;;5009594;28;20182;-48
2023/09/18 07:29:24;;;;;;;5.70;2.53;;;26.60;56.10;;;;;;5011858;28;20205;-47
2023/09/18 07:31:51;;;;;;;4.63;2.60;;;26.70;55.70;;;;;;5005809;28;20453;-46
2023/09/18 07:34:17;;;;;;;5.80;2.90;;;26.80;55.90;;;;;;5008311;28;20516;-47
2023/09/18 07:36:44;;;;;;;5.37;2.67;;;26.80;55.90;;;;;;5008408;28;20647;-49
2023/09/18 07:39:11;;;;;;;4.43;2.30;;;27.00;56.10;;;;;;5011702;28;20445;-49
2023/09/18 07:41:37;;;;;;;4.03;2.47;;;27.10;56.10;;;;;;5010016;28;20452;-50
2023/09/18 07:44:03;;;;;;;4.00;2.37;;;27.10;55.90;;;;;;5011072;28;20449;-49
2023/09/18 07:46:29;;;;;;;6.70;2.80;;;27.20;55.90;;;;;;4999468;28;20859;-47
2023/09/18 07:48:55;;;;;;;4.53;2.30;;;27.20;55.80;;;;;;4994033;28;20498;-51
2023/09/18 07:51:20;;;;;;;10.50;2.83;;;27.20;55.70;;;;;;5012585;28;20202;-47
2023/09/18 07:53:46;;;;;;;10.20;2.60;;;27.20;55.80;;;;;;5013679;28;20198;-48
2023/09/18 07:56:12;;;;;;;7.60;2.60;;;27.20;55.80;;;;;;5010818;28;20240;-50
2023/09/18 07:58:38;;;;;;;8.40;2.77;;;27.20;55.60;;;;;;5010988;28;20212;-51
2023/09/18 08:01:05;;;;;;;2.70;2.50;;;27.20;55.50;;;;;;5009040;28;20285;-47
2023/09/18 08:03:31;;;;;;;5.27;2.70;;;27.30;55.20;;;;;;5007564;28;20547;-49
2023/09/18 08:05:57;;;;;;;4.57;2.20;;;27.20;55.50;;;;;;5006089;28;20436;-49
2023/09/18 08:08:24;;;;;;;2.97;1.93;;;27.30;55.30;;;;;;5004702;28;20499;-51
2023/09/18 08:10:51;;;;;;;6.60;2.57;;;27.40;55.20;;;;;;5013265;28;20285;-53
2023/09/18 08:13:17;;;;;;;7.60;2.47;;;27.40;54.70;;;;;;5009816;28;20968;-49
2023/09/18 08:15:43;;;;;;;3.07;2.10;;;27.40;54.50;;;;;;5010031;28;20538;-53
2023/09/18 08:18:10;;;;;;;3.10;1.93;;;27.40;54.50;;;;;;5005968;28;20932;-48
2023/09/18 08:20:39;;;;;;;6.20;2.17;;;27.40;54.90;;;;;;5003282;28;20248;-47
2023/09/18 08:23:05;;;;;;;8.00;2.30;;;27.20;54.50;;;;;;5010538;28;20532;-46
2023/09/18 08:25:32;;;;;;;3.50;2.13;;;27.20;54.90;;;;;;5011158;28;20536;-53
2023/09/18 08:27:58;;;;;;;5.23;2.27;;;27.30;54.90;;;;;;5003779;28;20198;-49
2023/09/18 08:30:24;;;;;;;3.77;2.13;;;27.30;54.70;;;;;;5007043;28;20495;-49
2023/09/18 08:32:50;;;;;;;5.43;2.50;;;27.30;54.70;;;;;;5010463;28;20272;-52
2023/09/18 08:35:15;;;;;;;5.33;1.80;;;27.10;54.90;;;;;;5012570;28;20523;-46
2023/09/18 08:37:41;;;;;;;2.80;1.70;;;26.90;54.90;;;;;;5014136;28;20190;-49
2023/09/18 08:40:10;;;;;;;2.20;1.37;;;26.30;53.70;;;;;;5010715;28;20198;-46
2023/09/18 08:42:39;;;;;;;3.27;1.40;;;26.20;54.40;;;;;;5005505;28;20198;-49
2023/09/18 08:45:09;;;;;;;3.13;1.33;;;25.90;55.00;;;;;;5002638;28;20449;-46
2023/09/18 08:47:35;;;;;;;1.60;1.17;;;26.10;55.30;;;;;;5003953;28;21050;-46
2023/09/18 08:50:02;;;;;;;4.07;2.40;;;25.90;54.30;;;;;;5000365;28;21046;-49
2023/09/18 08:52:28;;;;;;;1.80;1.00;;;25.70;55.20;;;;;;5002672;28;20488;-49
2023/09/18 08:54:56;;;;;;;4.80;1.23;;;25.60;55.20;;;;;;5001438;28;20516;-49
2023/09/18 08:57:22;;;;;;;1.57;0.97;;;25.50;55.30;;;;;;5003125;28;20284;-49
2023/09/18 08:59:50;;;;;;;2.80;1.63;;;25.50;56.10;;;;;;5005069;28;20445;-45
2023/09/18 09:02:16;;;;;;;3.00;1.37;;;25.50;55.90;;;;;;5004259;28;20478;-46
2023/09/18 09:04:41;;;;;;;3.63;1.30;;;25.40;56.10;;;;;;5010575;28;20573;-49
2023/09/18 09:07:08;;;;;;;1.93;1.20;;;25.50;56.50;;;;;;5009497;28;20788;-50
2023/09/18 09:09:35;;;;;;;1.67;1.27;;;25.50;57.20;;;;;;5007025;28;20209;-46
2023/09/18 09:12:00;;;;;;;2.20;1.30;;;25.30;57.50;;;;;;5008430;28;20455;-49
2023/09/18 09:14:29;;;;;;;2.03;1.20;;;25.00;58.60;;;;;;5011154;28;20445;-50
2023/09/18 09:16:56;;;;;;;8.40;1.30;;;24.90;58.70;;;;;;4995262;28;20190;-51
2023/09/18 09:19:35;;;;;;;1.63;1.47;;;24.80;59.80;;;;;;4996262;28;20506;-49
2023/09/18 09:22:01;;;;;;;2.77;1.37;;;24.80;61.00;;;;;;4999881;28;20937;-45
2023/09/18 09:24:38;;;;;;;3.03;1.80;;;24.80;61.80;;;;;;5005533;28;20503;-46
2023/09/18 09:27:03;;;;;;;3.90;1.30;;;25.10;61.80;;;;;;5008373;28;20221;-48
2023/09/18 09:29:29;;;;;;;3.13;1.50;;;25.30;61.40;;;;;;5004783;28;20495;-45
2023/09/18 09:31:56;;;;;;;2.63;1.33;;;25.50;61.00;;;;;;5006524;28;20649;-50
2023/09/18 09:34:26;;;;;;;3.10;1.30;;;25.70;60.90;;;;;;5001745;28;20440;-48
2023/09/18 09:36:56;;;;;;;3.17;1.50;;;25.80;60.00;;;;;;5010012;28;20457;-47
2023/09/18 09:39:24;;;;;;;1.30;1.20;;;25.80;60.20;;;;;;5007729;28;20441;-50
2023/09/18 09:41:50;;;;;;;3.67;1.53;;;25.80;60.40;;;;;;5005719;28;20999;-47
2023/09/18 09:44:16;;;;;;;1.67;1.20;;;26.00;60.50;;;;;;4997868;28;20901;-47
2023/09/18 09:46:51;;;;;;;1.80;1.13;;;26.10;60.50;;;;;;5004898;28;20544;-49
2023/09/18 09:49:17;;;;;;;2.60;1.70;;;26.10;61.00;;;;;;5004039;28;20276;-49
2023/09/18 09:51:43;;;;;;;3.27;1.47;;;26.20;61.20;;;;;;5009129;28;20429;-50
2023/09/18 09:54:11;;;;;;;4.50;1.93;;;26.20;60.80;;;;;;5006351;28;20441;-52
2023/09/18 09:56:41;;;;;;;4.00;1.50;;;26.30;59.90;;;;;;4998988;28;20230;-51
2023/09/18 09:59:11;;;;;;;1.80;1.30;;;26.40;59.60;;;;;;4998684;28;20448;-50
2023/09/18 10:01:38;;;;;;;3.07;2.13;;;26.40;59.40;;;;;;5004908;28;20441;-52
2023/09/18 10:04:07;;;;;;;3.37;1.80;;;26.40;59.70;;;;;;5004466;28;20448;-51
2023/09/18 10:06:34;;;;;;;3.90;1.93;;;26.40;60.10;;;;;;5002656;28;23784;-45
2023/09/18 10:09:02;;;;;;;4.30;1.97;;;26.30;60.70;;;;;;4992927;28;20453;-45
2023/09/18 10:11:32;;;;;;;1.60;1.30;;;26.30;60.00;;;;;;5007861;28;20440;-45
2023/09/18 10:14:06;;;;;;;2.40;1.63;;;26.30;59.60;;;;;;5006247;28;20453;-48
2023/09/18 10:16:35;;;;;;;2.97;2.07;;;26.40;59.70;;;;;;5007109;28;21019;-45
2023/09/18 10:19:08;;;;;;;2.13;1.50;;;26.40;59.50;;;;;;5004235;28;21040;-45
2023/09/18 10:21:41;;;;;;;4.90;2.00;;;26.30;59.80;;;;;;4999550;28;20488;-48
2023/09/18 10:24:24;;;;;;;2.07;1.87;;;26.00;60.40;;;;;;5007803;28;20453;-47
2023/09/18 10:27:02;;;;;;;1.73;1.57;;;25.90;61.00;;;;;;5002505;28;20539;-46
2023/09/18 10:29:30;;;;;;;3.80;1.53;;;25.80;60.20;;;;;;5007345;28;20440;-48
2023/09/18 10:31:56;;;;;;;3.77;1.60;;;25.50;61.00;;;;;;5002154;28;20491;-45
2023/09/18 10:34:23;;;;;;;2.37;1.60;;;25.20;61.70;;;;;;5000567;28;20443;-47
2023/09/18 10:36:54;;;;;;;2.10;1.40;;;25.40;61.60;;;;;;4978500;28;20473;-46
2023/09/18 10:39:23;;;;;;;4.03;1.60;;;25.40;60.60;;;;;;5003836;28;20435;-47
2023/09/18 10:41:53;;;;;;;2.90;1.57;;;25.60;61.30;;;;;;4990632;28;20445;-47
2023/09/18 10:44:19;;;;;;;4.00;1.50;;;25.80;60.80;;;;;;5008415;28;20813;-45
2023/09/18 10:46:46;;;;;;;2.13;1.60;;;25.90;60.50;;;;;;5008737;28;20448;-47
2023/09/18 10:49:12;;;;;;;2.60;1.23;;;25.90;60.40;;;;;;5014272;28;20433;-46
2023/09/18 10:51:42;;;;;;;4.63;1.87;;;25.90;60.30;;;;;;5013771;28;20782;-46
2023/09/18 10:54:11;;;;;;;4.73;1.40;;;25.70;60.20;;;;;;5012906;28;20452;-45
2023/09/18 10:56:37;;;;;;;2.77;1.30;;;25.70;60.60;;;;;;5011325;28;20484;-47
2023/09/18 10:59:07;;;;;;;2.67;1.60;;;25.60;60.60;;;;;;5014593;28;20439;-49
2023/09/18 11:01:36;;;;;;;3.30;2.00;;;25.90;60.40;;;;;;5014030;28;20424;-48
2023/09/18 11:04:06;;;;;;;6.57;1.70;;;26.10;59.70;;;;;;5011250;28;20552;-50
2023/09/18 11:06:54;;;;;;;3.40;1.40;;;26.20;59.30;;;;;;5003874;28;20449;-47
2023/09/18 11:09:22;;;;;;;2.10;1.30;;;26.30;58.60;;;;;;5010125;28;20853;-45
2023/09/18 11:11:56;;;;;;;1.77;1.50;;;26.10;59.00;;;;;;5013022;28;20858;-45
2023/09/18 11:14:22;;;;;;;3.10;1.23;;;25.80;59.40;;;;;;5010812;28;20483;-45
2023/09/18 11:16:50;;;;;;;4.00;1.60;;;25.90;59.50;;;;;;5012301;28;20578;-50
2023/09/18 11:19:19;;;;;;;1.70;1.10;;;25.60;59.70;;;;;;5008422;28;20217;-44
2023/09/18 11:21:45;;;;;;;2.17;1.63;;;25.70;59.40;;;;;;5014073;28;20439;-49
2023/09/18 11:24:20;;;;;;;2.10;1.07;;;25.80;58.50;;;;;;5011857;28;20437;-49
2023/09/18 11:26:48;;;;;;;1.50;1.20;;;25.40;59.00;;;;;;5011727;28;20535;-45
2023/09/18 11:29:18;;;;;;;2.30;1.27;;;24.80;59.70;;;;;;5006522;28;20445;-48
2023/09/18 11:31:56;;;;;;;1.33;1.07;;;24.30;61.90;;;;;;5011220;28;20445;-44
2023/09/18 11:34:36;;;;;;;4.03;1.40;;;24.00;63.60;;;;;;5009125;28;20460;-46
2023/09/18 11:37:18;;;;;;;1.83;1.30;;;24.40;63.80;;;;;;5003713;28;20459;-44
2023/09/18 11:39:45;;;;;;;2.10;1.20;;;24.40;63.00;;;;;;5011263;28;20498;-46
2023/09/18 11:42:19;;;;;;;1.90;1.50;;;24.60;64.00;;;;;;5004460;28;20481;-46
2023/09/18 11:44:48;;;;;;;2.07;1.10;;;24.50;63.90;;;;;;5006577;28;20448;-45
2023/09/18 11:47:19;;;;;;;2.87;1.20;;;24.50;64.40;;;;;;5011575;28;20437;-46
2023/09/18 11:49:58;;;;;;;3.20;1.30;;;24.30;65.00;;;;;;5006969;28;20499;-46
2023/09/18 11:52:26;;;;;;;2.20;1.30;;;24.00;66.40;;;;;;5012314;28;20444;-48
2023/09/18 11:54:54;;;;;;;1.53;1.37;;;24.10;66.40;;;;;;5013501;28;20563;-46
2023/09/18 11:57:20;;;;;;;4.20;1.40;;;24.10;65.60;;;;;;5010606;28;21067;-48
2023/09/18 11:59:46;;;;;;;1.77;1.27;;;24.00;65.90;;;;;;5010229;28;20555;-50
2023/09/18 12:02:27;;;;;;;1.30;1.10;;;24.00;65.50;;;;;;5002747;28;20230;-46
2023/09/18 12:04:54;;;;;;;1.57;1.30;;;23.70;67.90;;;;;;5006917;28;20797;-47
2023/09/18 12:07:20;;;;;;;1.07;0.87;;;23.80;68.00;;;;;;5008842;28;20480;-48
2023/09/18 12:09:46;;;;;;;1.50;1.20;;;23.90;68.30;;;;;;5003642;28;20481;-47
2023/09/18 12:12:14;;;;;;;1.30;0.80;;;24.00;67.70;;;;;;5000672;28;20645;-52
2023/09/18 12:14:41;;;;;;;1.83;1.60;;;24.30;66.50;;;;;;5003405;28;20452;-46
2023/09/18 12:17:08;;;;;;;1.93;1.43;;;24.70;65.60;;;;;;5008693;28;20440;-48
2023/09/18 12:19:35;;;;;;;2.50;1.30;;;24.80;64.40;;;;;;5004650;28;20450;-48
2023/09/18 12:22:01;;;;;;;3.90;1.20;;;25.10;63.70;;;;;;5007251;28;20506;-46
2023/09/18 12:24:27;;;;;;;2.77;1.50;;;25.20;61.90;;;;;;5007483;28;21329;-47
2023/09/18 12:26:53;;;;;;;1.83;1.20;;;25.10;63.40;;;;;;5006211;28;20807;-47
2023/09/18 12:29:23;;;;;;;5.50;1.20;;;25.40;63.20;;;;;;5009947;28;20444;-47
2023/09/18 12:31:50;;;;;;;1.53;1.27;;;25.50;62.20;;;;;;5011090;28;20440;-47
2023/09/18 12:34:23;;;;;;;2.33;1.30;;;25.60;61.80;;;;;;5008049;28;20441;-47
2023/09/18 12:36:50;;;;;;;3.53;1.50;;;25.60;62.20;;;;;;5010882;28;20488;-46
2023/09/18 12:39:16;;;;;;;3.83;1.27;;;25.70;61.60;;;;;;5005263;28;20444;-45
2023/09/18 12:41:44;;;;;;;3.33;1.20;;;25.90;61.30;;;;;;5011008;28;21158;-45
2023/09/18 12:44:10;;;;;;;1.97;1.17;;;25.90;60.30;;;;;;5005431;28;20503;-45
2023/09/18 12:46:37;;;;;;;3.67;1.20;;;26.00;59.70;;;;;;5010896;28;20445;-47